EGGP/LPL METAR and TAF weather

Enter ICAO airport designator
Station Type Date Time Source
EGGP METAR 2020/04/06 08:20 UTC NOAA

EGGP 060820Z 22012KT 9999 FEW030 13/08 Q1011


Station Type Date Time Source
EGGP Decoded METAR 2020/04/06 08:20 UTC NOAA

Liverpool Airport , United Kingdom (EGGP) 53-20N 002-51W
Apr 06, 2020 - 04:20 AM EDT / 2020.04.06 0820 UTC
Wind: from the SW (220 degrees) at 14 MPH (12 KT):0
Visibility: greater than 7 mile(s):0
Sky conditions: mostly clear
Temperature: 55 F (13 C)
Dew Point: 46 F (8 C)
Relative Humidity: 71%
Pressure (altimeter): 29.85 in. Hg (1011 hPa)
ob: EGGP 060820Z 22012KT 9999 FEW030 13/08 Q1011
cycle: 8

Station Type Date Time Source
EGGP TAF 2020/04/06 06:09 UTC NOAA

TAF EGGP 060456Z 0606/0706 21009KT 9999 SCT025
BECMG 0608/0611 27014KT PROB30
TEMPO 0608/0615 8000 -SHRA
BECMG 0621/0624 VRB03KT PROB40 0703/0706 8000

Example: see airport list